createdAt,value
2022-10-10T00:03:12.232Z,55.79
2022-10-10T00:08:38.881Z,55.62
2022-10-10T00:13:31.283Z,55.97
2022-10-10T00:18:31.237Z,56.17
2022-10-10T00:23:31.141Z,56.25
2022-10-10T00:28:31.146Z,56.31
2022-10-10T00:33:31.030Z,56.38
2022-10-10T00:38:30.939Z,56.45
2022-10-10T00:43:30.898Z,56.53
2022-10-10T00:48:30.815Z,56.63
2022-10-10T00:53:30.770Z,56.71
2022-10-10T00:58:30.682Z,56.84
2022-10-10T01:03:30.623Z,56.96
2022-10-10T01:08:30.638Z,57.08
2022-10-10T01:13:30.471Z,57.16
2022-10-10T01:18:30.407Z,57.24
2022-10-10T01:23:30.359Z,57.31
2022-10-10T01:28:30.314Z,57.36
2022-10-10T01:33:30.213Z,57.43
2022-10-10T01:38:30.147Z,57.50
2022-10-10T01:43:30.081Z,57.57
2022-10-10T01:48:30.028Z,57.71
2022-10-10T01:53:29.950Z,57.80
2022-10-10T01:58:29.883Z,57.90
2022-10-10T02:03:29.833Z,57.98
2022-10-10T02:08:29.759Z,58.04
2022-10-10T02:13:29.671Z,58.12
2022-10-10T02:18:29.610Z,58.17
2022-10-10T02:23:29.548Z,58.26
2022-10-10T02:28:29.515Z,58.32
2022-10-10T02:33:29.419Z,58.42
2022-10-10T02:38:29.352Z,58.51
2022-10-10T02:43:29.290Z,58.59
2022-10-10T02:48:29.203Z,58.69
2022-10-10T02:53:29.140Z,58.79
2022-10-10T02:58:29.072Z,58.87
2022-10-10T03:03:29.034Z,58.99
2022-10-10T03:08:28.941Z,59.09
2022-10-10T03:13:28.902Z,59.17
2022-10-10T03:18:28.819Z,59.27
2022-10-10T03:23:28.752Z,59.34
2022-10-10T03:28:28.670Z,59.47
2022-10-10T03:33:28.618Z,59.57
2022-10-10T03:38:28.549Z,59.71
2022-10-10T03:43:28.475Z,59.79
2022-10-10T03:48:28.415Z,59.88
2022-10-10T03:53:28.331Z,59.98
2022-10-10T03:58:28.260Z,60.07
2022-10-10T04:03:28.194Z,60.14
2022-10-10T04:08:28.134Z,60.22
2022-10-10T04:13:28.058Z,60.30
2022-10-10T04:18:37.582Z,60.04
2022-10-10T04:23:29.990Z,60.36
2022-10-10T04:28:29.978Z,60.53
2022-10-10T04:33:29.898Z,60.58
2022-10-10T04:38:29.790Z,60.65
2022-10-10T04:43:29.743Z,60.71
2022-10-10T04:48:29.684Z,60.77
2022-10-10T04:53:29.590Z,60.83
2022-10-10T04:58:29.807Z,60.89
2022-10-10T05:03:29.457Z,60.99
2022-10-10T05:08:29.386Z,61.09
2022-10-10T05:13:29.335Z,61.17
2022-10-10T05:18:29.469Z,61.23
2022-10-10T05:23:29.162Z,61.27
2022-10-10T05:28:29.210Z,61.28
2022-10-10T05:33:29.130Z,61.29
2022-10-10T05:38:29.139Z,61.32
2022-10-10T05:43:28.932Z,61.34
2022-10-10T05:48:28.861Z,61.31
2022-10-10T05:53:28.791Z,61.30
2022-10-10T05:58:28.737Z,61.24
2022-10-10T06:03:28.657Z,61.17
2022-10-10T06:08:28.569Z,61.10
2022-10-10T06:13:28.513Z,61.02
2022-10-10T06:18:28.445Z,60.94
2022-10-10T06:23:28.375Z,60.84
2022-10-10T06:28:28.362Z,60.73
2022-10-10T06:33:29.078Z,60.59
2022-10-10T06:38:28.184Z,60.45
2022-10-10T06:43:28.085Z,60.30
2022-10-10T06:48:28.051Z,60.05
2022-10-10T06:53:27.983Z,59.65
2022-10-10T06:58:27.937Z,56.96
2022-10-10T07:03:27.908Z,55.51
2022-10-10T07:08:27.773Z,54.38
2022-10-10T07:13:27.676Z,53.08
2022-10-10T07:18:27.657Z,51.74
2022-10-10T07:23:27.563Z,50.68
2022-10-10T07:28:27.523Z,49.50
2022-10-10T07:33:27.432Z,48.47
2022-10-10T07:38:27.389Z,47.39
2022-10-10T07:43:27.316Z,46.66
2022-10-10T07:48:27.224Z,45.92
2022-10-10T07:53:27.137Z,45.21
2022-10-10T07:58:27.220Z,44.21
2022-10-10T08:03:27.034Z,43.55
2022-10-10T08:08:26.960Z,42.68
2022-10-10T08:13:26.891Z,41.52
2022-10-10T08:18:26.832Z,39.85
2022-10-10T08:23:26.755Z,37.76
2022-10-10T08:28:26.745Z,35.51
2022-10-10T08:33:26.613Z,34.23
2022-10-10T08:38:26.569Z,33.13
2022-10-10T08:43:26.484Z,31.23
2022-10-10T08:48:26.427Z,29.43
2022-10-10T08:53:26.349Z,27.42
2022-10-10T08:58:26.295Z,25.43
2022-10-10T09:03:26.219Z,24.89
2022-10-10T09:08:26.985Z,24.88
2022-10-10T09:13:26.110Z,24.39
2022-10-10T09:18:26.026Z,24.30
2022-10-10T09:23:25.948Z,22.93
2022-10-10T09:28:25.961Z,23.46
2022-10-10T09:33:25.822Z,24.45
2022-10-10T09:38:25.751Z,23.47
2022-10-10T09:43:25.672Z,22.81
2022-10-10T09:48:25.627Z,21.92
2022-10-10T09:53:25.565Z,23.66
2022-10-10T09:58:25.489Z,25.60
2022-10-10T10:03:25.423Z,24.56
2022-10-10T10:08:25.362Z,23.77
2022-10-10T10:13:25.315Z,21.53
2022-10-10T10:18:25.612Z,20.55
2022-10-10T10:23:25.191Z,20.45
2022-10-10T10:28:25.170Z,20.26
2022-10-10T10:33:25.021Z,20.56
2022-10-10T10:38:24.960Z,20.90
2022-10-10T10:43:24.885Z,20.78
2022-10-10T10:48:24.847Z,22.67
2022-10-10T10:53:24.746Z,22.99
2022-10-10T11:05:15.977Z,22.72
2022-10-10T11:08:25.623Z,23.43
2022-10-10T11:13:24.488Z,25.07
2022-10-10T11:18:24.426Z,24.39
2022-10-10T11:23:24.374Z,24.90
2022-10-10T11:28:24.361Z,25.48
2022-10-10T11:33:24.224Z,27.30
2022-10-10T11:38:24.149Z,27.82
2022-10-10T11:43:24.090Z,28.58
2022-10-10T11:48:24.027Z,29.31
2022-10-10T11:53:23.954Z,29.79
2022-10-10T11:58:23.890Z,28.83
2022-10-10T12:03:23.905Z,28.70
2022-10-10T12:08:23.775Z,29.24
2022-10-10T12:13:23.696Z,30.33
2022-10-10T12:18:23.623Z,30.79
2022-10-10T12:23:23.632Z,30.60
2022-10-10T12:28:23.531Z,31.01
2022-10-10T12:33:23.474Z,31.32
2022-10-10T12:38:23.379Z,32.09
2022-10-10T12:43:23.297Z,32.86
2022-10-10T12:48:23.225Z,33.61
2022-10-10T12:53:23.207Z,33.93
2022-10-10T12:58:27.221Z,34.53
2022-10-10T13:03:23.037Z,34.95
2022-10-10T13:08:22.983Z,34.82
2022-10-10T13:13:22.964Z,35.36
2022-10-10T13:18:22.830Z,35.69
2022-10-10T13:23:22.760Z,36.65
2022-10-10T13:28:22.715Z,36.50
2022-10-10T13:33:22.646Z,36.61
2022-10-10T13:38:22.566Z,35.69
2022-10-10T13:43:22.505Z,36.01
2022-10-10T13:48:22.497Z,36.10
2022-10-10T13:53:22.372Z,36.62
2022-10-10T13:58:22.318Z,37.13
2022-10-10T14:03:22.215Z,37.85
2022-10-10T14:08:22.155Z,38.24
2022-10-10T14:13:22.107Z,38.10
2022-10-10T14:18:22.009Z,38.04
2022-10-10T14:23:21.950Z,38.37
2022-10-10T14:28:23.425Z,38.68
2022-10-10T14:33:21.816Z,38.98
2022-10-10T14:38:21.747Z,38.92
2022-10-10T14:43:21.665Z,38.59
2022-10-10T14:48:21.610Z,38.74
2022-10-10T14:53:21.523Z,38.81
2022-10-10T14:58:21.467Z,39.23
2022-10-10T15:03:21.470Z,38.85
2022-10-10T15:08:21.360Z,38.95
2022-10-10T15:13:21.307Z,39.54
2022-10-10T15:18:52.669Z,40.28
2022-10-10T15:23:22.129Z,40.83
2022-10-10T15:28:21.074Z,41.31
2022-10-10T15:33:20.993Z,41.53
2022-10-10T15:38:20.947Z,41.64
2022-10-10T15:43:20.888Z,42.11
2022-10-10T15:48:21.325Z,42.50
2022-10-10T15:53:20.743Z,42.85
2022-10-10T15:58:20.657Z,43.32
2022-10-10T16:03:20.585Z,43.81
2022-10-10T16:08:20.530Z,44.23
2022-10-10T16:13:20.505Z,44.61
2022-10-10T16:18:20.394Z,45.02
2022-10-10T16:23:20.324Z,45.41
2022-10-10T16:28:20.322Z,45.90
2022-10-10T16:33:20.164Z,47.13
2022-10-10T16:38:20.117Z,47.95
2022-10-10T16:43:20.051Z,48.32
2022-10-10T16:48:19.994Z,48.74
2022-10-10T16:53:19.900Z,49.16
2022-10-10T16:58:19.888Z,49.59
2022-10-10T17:03:19.774Z,50.05
2022-10-10T17:08:19.715Z,50.36
2022-10-10T17:13:19.666Z,50.73
2022-10-10T17:18:19.554Z,51.20
2022-10-10T17:23:19.521Z,51.54
2022-10-10T17:28:19.468Z,51.92
2022-10-10T17:33:19.406Z,52.17
2022-10-10T17:38:38.455Z,52.46
2022-10-10T17:43:20.249Z,52.68
2022-10-10T17:48:19.185Z,52.90
2022-10-10T17:53:19.094Z,53.14
2022-10-10T17:58:19.023Z,53.42
2022-10-10T18:03:18.953Z,53.62
2022-10-10T18:08:18.904Z,54.19
2022-10-10T18:13:18.841Z,54.32
2022-10-10T18:18:18.746Z,54.48
2022-10-10T18:23:18.699Z,54.58
2022-10-10T18:28:18.664Z,54.70
2022-10-10T18:33:18.571Z,54.88
2022-10-10T18:38:18.486Z,55.06
2022-10-10T18:43:18.438Z,55.23
2022-10-10T18:48:18.363Z,55.44
2022-10-10T18:53:18.305Z,55.66
2022-10-10T18:58:18.226Z,55.82
2022-10-10T19:03:18.163Z,55.98
2022-10-10T19:08:18.079Z,56.16
2022-10-10T19:13:18.031Z,56.36
2022-10-10T19:18:17.953Z,56.50
2022-10-10T19:23:17.882Z,56.66
2022-10-10T19:28:17.867Z,56.79
2022-10-10T19:33:17.733Z,56.97
2022-10-10T19:38:17.748Z,57.12
2022-10-10T19:43:17.606Z,57.29
2022-10-10T19:48:17.551Z,57.55
2022-10-10T19:53:17.475Z,57.84
2022-10-10T19:58:17.404Z,58.19
2022-10-10T20:03:17.342Z,58.44
2022-10-10T20:08:17.291Z,58.58
2022-10-10T20:13:17.215Z,58.70
2022-10-10T20:18:17.152Z,58.90
2022-10-10T20:23:17.172Z,59.05
2022-10-10T20:28:17.056Z,59.21
2022-10-10T20:33:16.979Z,59.34
2022-10-10T20:38:17.015Z,59.47
2022-10-10T20:43:16.797Z,59.56
2022-10-10T20:48:16.726Z,59.61
2022-10-10T20:53:16.659Z,59.68
2022-10-10T20:58:16.601Z,59.72
2022-10-10T21:03:16.539Z,59.81
2022-10-10T21:08:16.450Z,59.88
2022-10-10T21:13:16.388Z,59.96
2022-10-10T21:18:16.310Z,60.05
2022-10-10T21:23:16.295Z,60.14
2022-10-10T21:28:16.289Z,60.25
2022-10-10T21:33:16.125Z,60.33
2022-10-10T21:38:16.046Z,60.42
2022-10-10T21:43:16.000Z,60.50
2022-10-10T21:48:15.908Z,60.75
2022-10-10T21:53:15.872Z,61.20
2022-10-10T21:58:15.782Z,61.86
2022-10-10T22:03:15.711Z,61.86
2022-10-10T22:08:15.655Z,62.19
2022-10-10T22:13:15.575Z,62.33
2022-10-10T22:18:15.518Z,62.39
2022-10-10T22:23:15.461Z,62.43
2022-10-10T22:28:15.441Z,62.52
2022-10-10T22:33:15.419Z,62.38
2022-10-10T22:38:15.226Z,62.53
2022-10-10T22:43:15.174Z,62.42
2022-10-10T22:48:15.108Z,62.46
2022-10-10T22:53:15.036Z,62.59
2022-10-10T22:58:14.948Z,62.51
2022-10-10T23:03:14.922Z,62.45
2022-10-10T23:08:14.836Z,62.43
2022-10-10T23:13:14.765Z,62.41
2022-10-10T23:18:14.702Z,62.43
2022-10-10T23:23:14.634Z,62.38
2022-10-10T23:28:14.643Z,62.35
2022-10-10T23:33:14.526Z,62.39
2022-10-10T23:38:14.422Z,62.42
2022-10-10T23:43:14.373Z,62.46
2022-10-10T23:48:14.306Z,62.48
2022-10-10T23:53:14.205Z,62.52
2022-10-10T23:58:14.169Z,62.62
